sensor_id;sensor_type;location;lat;lon;timestamp;pressure;altitude;pressure_sealevel;temperature;humidity
45864;BME280;31579;52.354;16.974;2023-02-14T00:00:39;394.7;;;-146.1;100.0
45864;BME280;31579;52.354;16.974;2023-02-14T00:01:42;404.3;;;-146.1;100.0
45864;BME280;31579;52.354;16.974;2023-02-14T00:02:46;371.4;;;-146.1;100.0
45864;BME280;31579;52.354;16.974;2023-02-14T00:03:50;404.1;;;-146.1;100.0
45864;BME280;31579;52.354;16.974;2023-02-14T00:04:54;369.9;;;-146.1;100.0
45864;BME280;31579;52.354;16.974;2023-02-14T00:05:57;403.1;;;-146.1;100.0
45864;BME280;31579;52.354;16.974;2023-02-14T00:07:02;371.0;;;-146.1;100.0
45864;BME280;31579;52.354;16.974;2023-02-14T00:08:05;403.0;;;-146.1;100.0
45864;BME280;31579;52.354;16.974;2023-02-14T00:09:11;369.5;;;-146.1;100.0
45864;BME280;31579;52.354;16.974;2023-02-14T00:10:12;403.1;;;-146.1;100.0
45864;BME280;31579;52.354;16.974;2023-02-14T00:11:16;370.5;;;-146.1;100.0
45864;BME280;31579;52.354;16.974;2023-02-14T00:12:19;402.9;;;-146.1;100.0
45864;BME280;31579;52.354;16.974;2023-02-14T00:13:23;369.9;;;-146.1;100.0
45864;BME280;31579;52.354;16.974;2023-02-14T00:14:26;404.7;;;-146.1;100.0
45864;BME280;31579;52.354;16.974;2023-02-14T00:15:30;374.2;;;-146.1;100.0
45864;BME280;31579;52.354;16.974;2023-02-14T00:16:33;404.7;;;-146.1;100.0
45864;BME280;31579;52.354;16.974;2023-02-14T00:17:37;370.4;;;-146.1;100.0
45864;BME280;31579;52.354;16.974;2023-02-14T00:18:41;348.1;;;-146.1;100.0
45864;BME280;31579;52.354;16.974;2023-02-14T00:19:45;327.3;;;-146.1;100.0
45864;BME280;31579;52.354;16.974;2023-02-14T00:20:49;308.9;;;-146.1;100.0
45864;BME280;31579;52.354;16.974;2023-02-14T00:21:53;296.2;;;-146.1;100.0
45864;BME280;31579;52.354;16.974;2023-02-14T00:22:57;285.7;;;-146.1;100.0
45864;BME280;31579;52.354;16.974;2023-02-14T00:24:00;366.6;;;-146.1;100.0
45864;BME280;31579;52.354;16.974;2023-02-14T00:25:04;311.3;;;-146.1;100.0
45864;BME280;31579;52.354;16.974;2023-02-14T00:27:12;329.4;;;-146.1;100.0
45864;BME280;31579;52.354;16.974;2023-02-14T00:28:16;307.0;;;-146.1;100.0
45864;BME280;31579;52.354;16.974;2023-02-14T00:29:22;292.5;;;-146.1;100.0
45864;BME280;31579;52.354;16.974;2023-02-14T00:30:24;278.9;;;-146.1;100.0
45864;BME280;31579;52.354;16.974;2023-02-14T00:31:27;361.6;;;-146.1;100.0
45864;BME280;31579;52.354;16.974;2023-02-14T00:32:32;308.0;;;-146.1;100.0
45864;BME280;31579;52.354;16.974;2023-02-14T00:33:36;290.5;;;-146.1;100.0
45864;BME280;31579;52.354;16.974;2023-02-14T00:34:40;276.9;;;-146.1;100.0
45864;BME280;31579;52.354;16.974;2023-02-14T00:35:44;264.4;;;-146.1;100.0
45864;BME280;31579;52.354;16.974;2023-02-14T00:36:48;254.8;;;-146.1;100.0
45864;BME280;31579;52.354;16.974;2023-02-14T00:37:52;246.2;;;-146.1;100.0
45864;BME280;31579;52.354;16.974;2023-02-14T00:38:56;239.4;;;-146.1;100.0
45864;BME280;31579;52.354;16.974;2023-02-14T00:40:00;232.4;;;-146.1;100.0
45864;BME280;31579;52.354;16.974;2023-02-14T00:41:04;227.4;;;-146.1;100.0
45864;BME280;31579;52.354;16.974;2023-02-14T00:42:08;221.6;;;-146.1;100.0
45864;BME280;31579;52.354;16.974;2023-02-14T00:43:12;217.7;;;-146.1;100.0
45864;BME280;31579;52.354;16.974;2023-02-14T00:44:17;217.5;;;-146.1;100.0
45864;BME280;31579;52.354;16.974;2023-02-14T00:45:21;215.6;;;-146.1;100.0
45864;BME280;31579;52.354;16.974;2023-02-14T00:46:23;369.2;;;-146.1;100.0
45864;BME280;31579;52.354;16.974;2023-02-14T00:47:31;320.9;;;-146.1;100.0
45864;BME280;31579;52.354;16.974;2023-02-14T00:48:35;275.2;;;-146.1;100.0
45864;BME280;31579;52.354;16.974;2023-02-14T00:49:39;356.6;;;-146.1;100.0
45864;BME280;31579;52.354;16.974;2023-02-14T00:50:43;296.7;;;-146.1;100.0
45864;BME280;31579;52.354;16.974;2023-02-14T00:51:47;277.9;;;-146.1;100.0
45864;BME280;31579;52.354;16.974;2023-02-14T00:52:51;264.6;;;-146.1;100.0
45864;BME280;31579;52.354;16.974;2023-02-14T00:53:55;252.6;;;-146.1;100.0
45864;BME280;31579;52.354;16.974;2023-02-14T00:55:00;246.3;;;-146.1;100.0
45864;BME280;31579;52.354;16.974;2023-02-14T00:56:04;331.1;;;-146.1;100.0
45864;BME280;31579;52.354;16.974;2023-02-14T00:57:08;278.4;;;-146.1;100.0
45864;BME280;31579;52.354;16.974;2023-02-14T00:58:13;266.6;;;-146.1;100.0
45864;BME280;31579;52.354;16.974;2023-02-14T00:59:17;254.6;;;-146.1;100.0
45864;BME280;31579;52.354;16.974;2023-02-14T01:00:20;334.3;;;-146.1;100.0
45864;BME280;31579;52.354;16.974;2023-02-14T01:01:25;288.4;;;-146.1;100.0
45864;BME280;31579;52.354;16.974;2023-02-14T01:02:28;406.7;;;-146.1;100.0
45864;BME280;31579;52.354;16.974;2023-02-14T01:03:32;354.7;;;-146.1;100.0
45864;BME280;31579;52.354;16.974;2023-02-14T01:04:36;326.7;;;-146.1;100.0
45864;BME280;31579;52.354;16.974;2023-02-14T01:05:40;304.0;;;-146.1;100.0
45864;BME280;31579;52.354;16.974;2023-02-14T01:06:44;287.0;;;-146.1;100.0
45864;BME280;31579;52.354;16.974;2023-02-14T01:07:47;364.3;;;-146.1;100.0
45864;BME280;31579;52.354;16.974;2023-02-14T01:08:51;304.8;;;-146.1;100.0
45864;BME280;31579;52.354;16.974;2023-02-14T01:09:55;286.5;;;-146.1;100.0
45864;BME280;31579;52.354;16.974;2023-02-14T01:12:03;264.2;;;-146.1;100.0
45864;BME280;31579;52.354;16.974;2023-02-14T01:13:07;255.3;;;-146.1;100.0
45864;BME280;31579;52.354;16.974;2023-02-14T01:14:11;246.5;;;-146.1;100.0
45864;BME280;31579;52.354;16.974;2023-02-14T01:15:15;238.2;;;-146.1;100.0
45864;BME280;31579;52.354;16.974;2023-02-14T01:16:20;231.4;;;-146.1;100.0
45864;BME280;31579;52.354;16.974;2023-02-14T01:17:23;227.1;;;-146.1;100.0
45864;BME280;31579;52.354;16.974;2023-02-14T01:17:41;301.3;;;-146.1;100.0
45864;BME280;31579;52.354;16.974;2023-02-14T01:18:45;203.1;;;-146.1;100.0
45864;BME280;31579;52.354;16.974;2023-02-14T01:19:51;181.2;;;-146.1;100.0
45864;BME280;31579;52.354;16.974;2023-02-14T01:20:52;181.8;;;-146.1;100.0
45864;BME280;31579;52.354;16.974;2023-02-14T01:21:56;182.0;;;-146.1;100.0
45864;BME280;31579;52.354;16.974;2023-02-14T01:23:01;181.3;;;-146.1;100.0
45864;BME280;31579;52.354;16.974;2023-02-14T01:24:05;240.3;;;-146.1;100.0
45864;BME280;31579;52.354;16.974;2023-02-14T01:25:08;208.0;;;-146.1;100.0
45864;BME280;31579;52.354;16.974;2023-02-14T01:26:13;204.4;;;-146.1;100.0
45864;BME280;31579;52.354;16.974;2023-02-14T01:27:16;200.9;;;-146.1;100.0
45864;BME280;31579;52.354;16.974;2023-02-14T01:28:20;198.4;;;-146.1;100.0
45864;BME280;31579;52.354;16.974;2023-02-14T01:29:24;197.5;;;-146.1;100.0
45864;BME280;31579;52.354;16.974;2023-02-14T01:30:28;195.6;;;-146.1;100.0
45864;BME280;31579;52.354;16.974;2023-02-14T01:31:33;193.7;;;-146.1;100.0
45864;BME280;31579;52.354;16.974;2023-02-14T01:32:36;242.9;;;-146.1;100.0
45864;BME280;31579;52.354;16.974;2023-02-14T01:33:40;299.5;;;-146.1;100.0
45864;BME280;31579;52.354;16.974;2023-02-14T01:34:43;254.2;;;-146.1;100.0
45864;BME280;31579;52.354;16.974;2023-02-14T01:35:46;330.9;;;-146.1;100.0
45864;BME280;31579;52.354;16.974;2023-02-14T01:36:50;273.9;;;-146.1;100.0
45864;BME280;31579;52.354;16.974;2023-02-14T01:37:54;259.3;;;-146.1;100.0
45864;BME280;31579;52.354;16.974;2023-02-14T01:39:00;246.1;;;-146.1;100.0
45864;BME280;31579;52.354;16.974;2023-02-14T01:40:09;229.1;;;-146.1;100.0
45864;BME280;31579;52.354;16.974;2023-02-14T01:41:13;200.6;;;-146.1;100.0
45864;BME280;31579;52.354;16.974;2023-02-14T01:42:32;306.8;;;-146.1;100.0
45864;BME280;31579;52.354;16.974;2023-02-14T01:45:43;166.1;;;-146.1;100.0
45864;BME280;31579;52.354;16.974;2023-02-14T01:46:46;192.8;;;-146.1;100.0
45864;BME280;31579;52.354;16.974;2023-02-14T01:47:51;172.5;;;-146.1;100.0
45864;BME280;31579;52.354;16.974;2023-02-14T01:48:55;174.2;;;-146.1;100.0
45864;BME280;31579;52.354;16.974;2023-02-14T01:49:59;229.8;;;-146.1;100.0
45864;BME280;31579;52.354;16.974;2023-02-14T01:51:01;200.9;;;-146.1;100.0
45864;BME280;31579;52.354;16.974;2023-02-14T01:52:07;270.0;;;-146.1;100.0
45864;BME280;31579;52.354;16.974;2023-02-14T01:53:09;228.9;;;-146.1;100.0
45864;BME280;31579;52.354;16.974;2023-02-14T01:54:12;219.9;;;-146.1;100.0
45864;BME280;31579;52.354;16.974;2023-02-14T01:55:18;294.4;;;-146.1;100.0
45864;BME280;31579;52.354;16.974;2023-02-14T01:56:23;335.2;;;-146.1;100.0
45864;BME280;31579;52.354;16.974;2023-02-14T01:57:22;368.6;;;-146.1;100.0
45864;BME280;31579;52.354;16.974;2023-02-14T01:58:26;389.9;;;-146.1;100.0
45864;BME280;31579;52.354;16.974;2023-02-14T01:59:30;427.8;;;-146.1;100.0
45864;BME280;31579;52.354;16.974;2023-02-14T02:00:30;425.7;;;-146.1;100.0
45864;BME280;31579;52.354;16.974;2023-02-14T02:01:34;396.7;;;-146.1;100.0
45864;BME280;31579;52.354;16.974;2023-02-14T02:02:38;369.9;;;-146.1;100.0
45864;BME280;31579;52.354;16.974;2023-02-14T02:03:58;313.1;;;-146.1;100.0
45864;BME280;31579;52.354;16.974;2023-02-14T02:05:01;215.5;;;-146.1;100.0
45864;BME280;31579;52.354;16.974;2023-02-14T02:06:10;210.1;;;-146.1;100.0
45864;BME280;31579;52.354;16.974;2023-02-14T02:07:14;207.2;;;-146.1;100.0
45864;BME280;31579;52.354;16.974;2023-02-14T02:08:14;204.4;;;-146.1;100.0
45864;BME280;31579;52.354;16.974;2023-02-14T02:10:23;198.4;;;-146.1;100.0
45864;BME280;31579;52.354;16.974;2023-02-14T02:11:27;197.0;;;-146.1;100.0
45864;BME280;31579;52.354;16.974;2023-02-14T02:12:32;194.9;;;-146.1;100.0
45864;BME280;31579;52.354;16.974;2023-02-14T02:13:36;193.4;;;-146.1;100.0
45864;BME280;31579;52.354;16.974;2023-02-14T02:14:40;191.2;;;-146.1;100.0
45864;BME280;31579;52.354;16.974;2023-02-14T02:22:24;201.4;;;-146.1;100.0
45864;BME280;31579;52.354;16.974;2023-02-14T02:46:39;279.7;;;-146.1;100.0
45864;BME280;31579;52.354;16.974;2023-02-14T02:49:53;238.4;;;-146.1;100.0
45864;BME280;31579;52.354;16.974;2023-02-14T02:50:53;230.1;;;-146.1;100.0
45864;BME280;31579;52.354;16.974;2023-02-14T02:51:57;222.3;;;-146.1;100.0
45864;BME280;31579;52.354;16.974;2023-02-14T02:54:08;283.6;;;-146.1;100.0
45864;BME280;31579;52.354;16.974;2023-02-14T02:55:57;241.9;;;-146.1;100.0
45864;BME280;31579;52.354;16.974;2023-02-14T02:57:26;306.2;;;-146.1;100.0
45864;BME280;31579;52.354;16.974;2023-02-14T02:58:20;254.9;;;-146.1;100.0
45864;BME280;31579;52.354;16.974;2023-02-14T02:59:26;241.9;;;-146.1;100.0
45864;BME280;31579;52.354;16.974;2023-02-14T03:00:27;231.2;;;-146.1;100.0
45864;BME280;31579;52.354;16.974;2023-02-14T03:01:33;223.0;;;-146.1;100.0
45864;BME280;31579;52.354;16.974;2023-02-14T03:02:40;216.2;;;-146.1;100.0
45864;BME280;31579;52.354;16.974;2023-02-14T03:03:40;210.6;;;-146.1;100.0
45864;BME280;31579;52.354;16.974;2023-02-14T03:04:45;205.5;;;-146.1;100.0
45864;BME280;31579;52.354;16.974;2023-02-14T03:05:47;200.5;;;-146.1;100.0
45864;BME280;31579;52.354;16.974;2023-02-14T03:06:52;197.6;;;-146.1;100.0
45864;BME280;31579;52.354;16.974;2023-02-14T03:07:56;195.4;;;-146.1;100.0
45864;BME280;31579;52.354;16.974;2023-02-14T03:11:05;293.5;;;-146.1;100.0
45864;BME280;31579;52.354;16.974;2023-02-14T03:14:20;240.6;;;-146.1;100.0
45864;BME280;31579;52.354;16.974;2023-02-14T03:16:29;220.2;;;-146.1;100.0
45864;BME280;31579;52.354;16.974;2023-02-14T03:19:42;235.5;;;-146.1;100.0
45864;BME280;31579;52.354;16.974;2023-02-14T03:21:50;216.6;;;-146.1;100.0
45864;BME280;31579;52.354;16.974;2023-02-14T03:25:08;227.8;;;-146.1;100.0
45864;BME280;31579;52.354;16.974;2023-02-14T03:27:30;285.8;;;-146.1;100.0
45864;BME280;31579;52.354;16.974;2023-02-14T03:30:57;146.6;;;-146.1;100.0
45864;BME280;31579;52.354;16.974;2023-02-14T03:32:01;128.8;;;-146.1;100.0
45864;BME280;31579;52.354;16.974;2023-02-14T03:33:04;119.3;;;-146.1;100.0
45864;BME280;31579;52.354;16.974;2023-02-14T03:35:59;107.7;;;-146.1;100.0
45864;BME280;31579;52.354;16.974;2023-02-14T03:36:17;106.3;;;-146.1;100.0
45864;BME280;31579;52.354;16.974;2023-02-14T03:37:21;105.2;;;-146.1;100.0
45864;BME280;31579;52.354;16.974;2023-02-14T03:38:26;104.5;;;-146.1;100.0
45864;BME280;31579;52.354;16.974;2023-02-14T03:40:34;102.4;;;-146.1;100.0
45864;BME280;31579;52.354;16.974;2023-02-14T03:41:38;102.5;;;-146.1;100.0
45864;BME280;31579;52.354;16.974;2023-02-14T03:43:45;99.4;;;-146.1;100.0
45864;BME280;31579;52.354;16.974;2023-02-14T03:44:46;95.7;;;-146.1;100.0
45864;BME280;31579;52.354;16.974;2023-02-14T03:45:53;106.4;;;-146.1;100.0
45864;BME280;31579;52.354;16.974;2023-02-14T03:46:59;111.6;;;-146.1;100.0
45864;BME280;31579;52.354;16.974;2023-02-14T03:48:01;113.5;;;-146.1;100.0
45864;BME280;31579;52.354;16.974;2023-02-14T03:49:18;228.1;;;-146.1;100.0
45864;BME280;31579;52.354;16.974;2023-02-14T03:50:21;139.8;;;-146.1;100.0
45864;BME280;31579;52.354;16.974;2023-02-14T03:51:25;112.5;;;-146.1;100.0
45864;BME280;31579;52.354;16.974;2023-02-14T03:52:29;100.7;;;-146.1;100.0
45864;BME280;31579;52.354;16.974;2023-02-14T03:53:34;95.3;;;-146.1;100.0
45864;BME280;31579;52.354;16.974;2023-02-14T03:54:37;92.7;;;-146.1;100.0
45864;BME280;31579;52.354;16.974;2023-02-14T03:56:50;90.8;;;-146.1;100.0
45864;BME280;31579;52.354;16.974;2023-02-14T03:58:54;91.1;;;-146.1;100.0
45864;BME280;31579;52.354;16.974;2023-02-14T03:59:57;90.8;;;-146.1;100.0
45864;BME280;31579;52.354;16.974;2023-02-14T04:01:05;91.3;;;-146.1;100.0
45864;BME280;31579;52.354;16.974;2023-02-14T04:02:07;90.3;;;-146.1;100.0
45864;BME280;31579;52.354;16.974;2023-02-14T04:03:10;91.7;;;-146.1;100.0
45864;BME280;31579;52.354;16.974;2023-02-14T04:04:13;114.1;;;-146.1;100.0
45864;BME280;31579;52.354;16.974;2023-02-14T04:05:20;95.0;;;-146.1;100.0
45864;BME280;31579;52.354;16.974;2023-02-14T04:06:20;131.8;;;-146.1;100.0
45864;BME280;31579;52.354;16.974;2023-02-14T04:07:24;116.0;;;-146.1;100.0
45864;BME280;31579;52.354;16.974;2023-02-14T04:08:28;120.8;;;-146.1;100.0
45864;BME280;31579;52.354;16.974;2023-02-14T04:09:32;125.4;;;-146.1;100.0
45864;BME280;31579;52.354;16.974;2023-02-14T04:10:36;128.0;;;-146.1;100.0
45864;BME280;31579;52.354;16.974;2023-02-14T04:11:40;129.0;;;-146.1;100.0
45864;BME280;31579;52.354;16.974;2023-02-14T04:12:44;130.0;;;-146.1;100.0
45864;BME280;31579;52.354;16.974;2023-02-14T04:13:48;130.7;;;-146.1;100.0
45864;BME280;31579;52.354;16.974;2023-02-14T04:14:52;130.9;;;-146.1;100.0
45864;BME280;31579;52.354;16.974;2023-02-14T04:15:56;130.7;;;-146.1;100.0
45864;BME280;31579;52.354;16.974;2023-02-14T04:17:00;131.4;;;-146.1;100.0
45864;BME280;31579;52.354;16.974;2023-02-14T04:18:04;131.1;;;-146.1;100.0
45864;BME280;31579;52.354;16.974;2023-02-14T04:19:08;131.5;;;-146.1;100.0
45864;BME280;31579;52.354;16.974;2023-02-14T04:20:12;131.4;;;-146.1;100.0
45864;BME280;31579;52.354;16.974;2023-02-14T04:21:21;183.7;;;-146.1;100.0
45864;BME280;31579;52.354;16.974;2023-02-14T04:22:25;143.3;;;-146.1;100.0
45864;BME280;31579;52.354;16.974;2023-02-14T04:23:29;129.1;;;-146.1;100.0
45864;BME280;31579;52.354;16.974;2023-02-14T04:24:33;123.3;;;-146.1;100.0
45864;BME280;31579;52.354;16.974;2023-02-14T04:25:37;121.2;;;-146.1;100.0
45864;BME280;31579;52.354;16.974;2023-02-14T04:26:41;119.8;;;-146.1;100.0
45864;BME280;31579;52.354;16.974;2023-02-14T04:27:45;118.7;;;-146.1;100.0
45864;BME280;31579;52.354;16.974;2023-02-14T04:28:49;118.1;;;-146.1;100.0
45864;BME280;31579;52.354;16.974;2023-02-14T04:29:53;117.2;;;-146.1;100.0
45864;BME280;31579;52.354;16.974;2023-02-14T04:30:59;116.5;;;-146.1;100.0
45864;BME280;31579;52.354;16.974;2023-02-14T04:32:01;116.7;;;-146.1;100.0
45864;BME280;31579;52.354;16.974;2023-02-14T04:33:06;115.5;;;-146.1;100.0
45864;BME280;31579;52.354;16.974;2023-02-14T04:34:10;116.1;;;-146.1;100.0
45864;BME280;31579;52.354;16.974;2023-02-14T04:35:14;112.7;;;-146.1;100.0
45864;BME280;31579;52.354;16.974;2023-02-14T04:36:17;179.4;;;-146.1;100.0
45864;BME280;31579;52.354;16.974;2023-02-14T04:37:21;150.0;;;-146.1;100.0
45864;BME280;31579;52.354;16.974;2023-02-14T04:38:25;148.1;;;-146.1;100.0
45864;BME280;31579;52.354;16.974;2023-02-14T04:39:29;149.7;;;-146.1;100.0
45864;BME280;31579;52.354;16.974;2023-02-14T04:40:33;151.4;;;-146.1;100.0
45864;BME280;31579;52.354;16.974;2023-02-14T04:41:37;152.9;;;-146.1;100.0
45864;BME280;31579;52.354;16.974;2023-02-14T04:42:41;153.8;;;-146.1;100.0
45864;BME280;31579;52.354;16.974;2023-02-14T04:43:45;153.7;;;-146.1;100.0
45864;BME280;31579;52.354;16.974;2023-02-14T04:44:49;153.8;;;-146.1;100.0
45864;BME280;31579;52.354;16.974;2023-02-14T04:45:53;152.9;;;-146.1;100.0
45864;BME280;31579;52.354;16.974;2023-02-14T04:46:57;152.3;;;-146.1;100.0
45864;BME280;31579;52.354;16.974;2023-02-14T04:48:01;151.3;;;-146.1;100.0
45864;BME280;31579;52.354;16.974;2023-02-14T04:49:06;148.4;;;-146.1;100.0
45864;BME280;31579;52.354;16.974;2023-02-14T04:50:10;148.7;;;-146.1;100.0
45864;BME280;31579;52.354;16.974;2023-02-14T04:51:14;148.4;;;-146.1;100.0
45864;BME280;31579;52.354;16.974;2023-02-14T04:52:16;194.9;;;-146.1;100.0
45864;BME280;31579;52.354;16.974;2023-02-14T04:53:26;175.6;;;-146.1;100.0
45864;BME280;31579;52.354;16.974;2023-02-14T04:54:30;160.5;;;-146.1;100.0
45864;BME280;31579;52.354;16.974;2023-02-14T04:55:34;156.9;;;-146.1;100.0
45864;BME280;31579;52.354;16.974;2023-02-14T04:56:38;155.7;;;-146.1;100.0
45864;BME280;31579;52.354;16.974;2023-02-14T04:57:42;154.1;;;-146.1;100.0
45864;BME280;31579;52.354;16.974;2023-02-14T04:58:46;153.9;;;-146.1;100.0
45864;BME280;31579;52.354;16.974;2023-02-14T04:59:50;152.9;;;-146.1;100.0
45864;BME280;31579;52.354;16.974;2023-02-14T05:00:54;152.0;;;-146.1;100.0
45864;BME280;31579;52.354;16.974;2023-02-14T05:01:58;151.1;;;-146.1;100.0
45864;BME280;31579;52.354;16.974;2023-02-14T05:03:02;150.3;;;-146.1;100.0
45864;BME280;31579;52.354;16.974;2023-02-14T05:04:06;149.3;;;-146.1;100.0
45864;BME280;31579;52.354;16.974;2023-02-14T05:05:10;148.3;;;-146.1;100.0
45864;BME280;31579;52.354;16.974;2023-02-14T05:06:14;147.8;;;-146.1;100.0
45864;BME280;31579;52.354;16.974;2023-02-14T05:07:18;146.3;;;-146.1;100.0
45864;BME280;31579;52.354;16.974;2023-02-14T05:08:21;177.1;;;-146.1;100.0
45864;BME280;31579;52.354;16.974;2023-02-14T05:09:39;255.6;;;-146.1;100.0
45864;BME280;31579;52.354;16.974;2023-02-14T05:10:44;169.8;;;-146.1;100.0
45864;BME280;31579;52.354;16.974;2023-02-14T05:11:48;149.8;;;-146.1;100.0
45864;BME280;31579;52.354;16.974;2023-02-14T05:12:52;140.5;;;-146.1;100.0
45864;BME280;31579;52.354;16.974;2023-02-14T05:13:57;134.5;;;-146.1;100.0
45864;BME280;31579;52.354;16.974;2023-02-14T05:15:01;134.3;;;-146.1;100.0
45864;BME280;31579;52.354;16.974;2023-02-14T05:16:05;133.0;;;-146.1;100.0
45864;BME280;31579;52.354;16.974;2023-02-14T05:17:09;132.8;;;-146.1;100.0
45864;BME280;31579;52.354;16.974;2023-02-14T05:18:13;131.9;;;-146.1;100.0
45864;BME280;31579;52.354;16.974;2023-02-14T05:19:17;131.9;;;-146.1;100.0
45864;BME280;31579;52.354;16.974;2023-02-14T05:20:21;130.9;;;-146.1;100.0
45864;BME280;31579;52.354;16.974;2023-02-14T05:21:25;130.4;;;-146.1;100.0
45864;BME280;31579;52.354;16.974;2023-02-14T05:22:29;129.8;;;-146.1;100.0
45864;BME280;31579;52.354;16.974;2023-02-14T05:23:36;198.9;;;-146.1;100.0
45864;BME280;31579;52.354;16.974;2023-02-14T05:24:40;159.6;;;-146.1;100.0
45864;BME280;31579;52.354;16.974;2023-02-14T05:25:46;124.1;;;-146.1;100.0
45864;BME280;31579;52.354;16.974;2023-02-14T05:26:48;109.3;;;-146.1;100.0
45864;BME280;31579;52.354;16.974;2023-02-14T05:27:52;101.9;;;-146.1;100.0
45864;BME280;31579;52.354;16.974;2023-02-14T05:28:56;97.6;;;-146.1;100.0
45864;BME280;31579;52.354;16.974;2023-02-14T05:30:00;95.2;;;-146.1;100.0
45864;BME280;31579;52.354;16.974;2023-02-14T05:31:03;78.1;;;-146.1;100.0
45864;BME280;31579;52.354;16.974;2023-02-14T05:32:07;83.4;;;-146.1;100.0
45864;BME280;31579;52.354;16.974;2023-02-14T05:33:11;94.2;;;-146.1;100.0
45864;BME280;31579;52.354;16.974;2023-02-14T05:34:15;98.6;;;-146.1;100.0
45864;BME280;31579;52.354;16.974;2023-02-14T05:35:19;100.3;;;-146.1;100.0
45864;BME280;31579;52.354;16.974;2023-02-14T05:36:23;101.5;;;-146.1;100.0
45864;BME280;31579;52.354;16.974;2023-02-14T05:37:27;101.9;;;-146.1;100.0
45864;BME280;31579;52.354;16.974;2023-02-14T05:38:31;102.6;;;-146.1;100.0
45864;BME280;31579;52.354;16.974;2023-02-14T05:39:34;115.9;;;-146.1;100.0
45864;BME280;31579;52.354;16.974;2023-02-14T05:40:46;209.5;;;-146.1;100.0
45864;BME280;31579;52.354;16.974;2023-02-14T05:41:50;136.9;;;-146.1;100.0
45864;BME280;31579;52.354;16.974;2023-02-14T05:42:54;110.1;;;-146.1;100.0
45864;BME280;31579;52.354;16.974;2023-02-14T05:43:58;100.3;;;-146.1;100.0
45864;BME280;31579;52.354;16.974;2023-02-14T05:45:00;90.6;;;-146.1;100.0
45864;BME280;31579;52.354;16.974;2023-02-14T05:46:05;81.7;;;-146.1;100.0
45864;BME280;31579;52.354;16.974;2023-02-14T05:47:08;109.9;;;-146.1;100.0
45864;BME280;31579;52.354;16.974;2023-02-14T05:48:12;103.5;;;-146.1;100.0
45864;BME280;31579;52.354;16.974;2023-02-14T05:49:16;113.7;;;-146.1;100.0
45864;BME280;31579;52.354;16.974;2023-02-14T05:50:20;119.6;;;-146.1;100.0
45864;BME280;31579;52.354;16.974;2023-02-14T05:51:24;122.8;;;-146.1;100.0
45864;BME280;31579;52.354;16.974;2023-02-14T05:52:28;124.1;;;-146.1;100.0
45864;BME280;31579;52.354;16.974;2023-02-14T05:53:32;125.2;;;-146.1;100.0
45864;BME280;31579;52.354;16.974;2023-02-14T05:54:36;125.3;;;-146.1;100.0
45864;BME280;31579;52.354;16.974;2023-02-14T05:55:41;128.1;;;-146.1;100.0
45864;BME280;31579;52.354;16.974;2023-02-14T05:56:45;125.1;;;-146.1;100.0
45864;BME280;31579;52.354;16.974;2023-02-14T05:57:49;125.2;;;-146.1;100.0
45864;BME280;31579;52.354;16.974;2023-02-14T05:58:53;125.0;;;-146.1;100.0
45864;BME280;31579;52.354;16.974;2023-02-14T05:59:57;124.8;;;-146.1;100.0
45864;BME280;31579;52.354;16.974;2023-02-14T06:01:01;124.3;;;-146.1;100.0
45864;BME280;31579;52.354;16.974;2023-02-14T06:02:05;124.5;;;-146.1;100.0
45864;BME280;31579;52.354;16.974;2023-02-14T06:03:09;124.2;;;-146.1;100.0
45864;BME280;31579;52.354;16.974;2023-02-14T06:04:13;124.4;;;-146.1;100.0
45864;BME280;31579;52.354;16.974;2023-02-14T06:05:17;123.5;;;-146.1;100.0
45864;BME280;31579;52.354;16.974;2023-02-14T06:05:54;162.2;;;-146.1;100.0
45864;BME280;31579;52.354;16.974;2023-02-14T06:06:59;123.5;;;-146.1;100.0
45864;BME280;31579;52.354;16.974;2023-02-14T06:08:00;120.9;;;-146.1;100.0
45864;BME280;31579;52.354;16.974;2023-02-14T06:09:03;140.8;;;-146.1;100.0
45864;BME280;31579;52.354;16.974;2023-02-14T06:10:08;126.7;;;-146.1;100.0
45864;BME280;31579;52.354;16.974;2023-02-14T06:11:10;165.8;;;-146.1;100.0
45864;BME280;31579;52.354;16.974;2023-02-14T06:12:14;147.9;;;-146.1;100.0
45864;BME280;31579;52.354;16.974;2023-02-14T06:13:18;150.4;;;-146.1;100.0
45864;BME280;31579;52.354;16.974;2023-02-14T06:14:22;153.7;;;-146.1;100.0
45864;BME280;31579;52.354;16.974;2023-02-14T06:15:26;156.0;;;-146.1;100.0
45864;BME280;31579;52.354;16.974;2023-02-14T06:16:30;157.5;;;-146.1;100.0
45864;BME280;31579;52.354;16.974;2023-02-14T06:17:34;158.3;;;-146.1;100.0
45864;BME280;31579;52.354;16.974;2023-02-14T06:18:38;158.2;;;-146.1;100.0
45864;BME280;31579;52.354;16.974;2023-02-14T06:19:42;158.0;;;-146.1;100.0
45864;BME280;31579;52.354;16.974;2023-02-14T06:20:46;157.5;;;-146.1;100.0
45864;BME280;31579;52.354;16.974;2023-02-14T06:21:50;155.1;;;-146.1;100.0
45864;BME280;31579;52.354;16.974;2023-02-14T06:22:54;187.9;;;-146.1;100.0
45864;BME280;31579;52.354;16.974;2023-02-14T06:23:57;165.7;;;-146.1;100.0
45864;BME280;31579;52.354;16.974;2023-02-14T06:25:02;168.6;;;-146.1;100.0
45864;BME280;31579;52.354;16.974;2023-02-14T06:26:05;171.6;;;-146.1;100.0
45864;BME280;31579;52.354;16.974;2023-02-14T06:27:09;173.1;;;-146.1;100.0
45864;BME280;31579;52.354;16.974;2023-02-14T06:28:13;173.7;;;-146.1;100.0
45864;BME280;31579;52.354;16.974;2023-02-14T06:29:17;173.8;;;-146.1;100.0
45864;BME280;31579;52.354;16.974;2023-02-14T06:30:22;173.2;;;-146.1;100.0
45864;BME280;31579;52.354;16.974;2023-02-14T06:31:24;184.4;;;-146.1;100.0
45864;BME280;31579;52.354;16.974;2023-02-14T06:32:28;171.1;;;-146.1;100.0
45864;BME280;31579;52.354;16.974;2023-02-14T06:33:32;176.2;;;-146.1;100.0
45864;BME280;31579;52.354;16.974;2023-02-14T06:34:36;178.9;;;-146.1;100.0
45864;BME280;31579;52.354;16.974;2023-02-14T06:35:40;179.7;;;-146.1;100.0
45864;BME280;31579;52.354;16.974;2023-02-14T06:36:44;179.7;;;-146.1;100.0
45864;BME280;31579;52.354;16.974;2023-02-14T06:37:47;193.5;;;-146.1;100.0
45864;BME280;31579;52.354;16.974;2023-02-14T06:38:49;300.8;;;-146.1;100.0
45864;BME280;31579;52.354;16.974;2023-02-14T06:40:03;304.7;;;-146.1;100.0
45864;BME280;31579;52.354;16.974;2023-02-14T06:41:07;216.6;;;-146.1;100.0
45864;BME280;31579;52.354;16.974;2023-02-14T06:42:11;187.9;;;-146.1;100.0
45864;BME280;31579;52.354;16.974;2023-02-14T06:43:15;178.5;;;-146.1;100.0